sensor_id;sensor_type;location;lat;lon;timestamp;P1;durP1;ratioP1;P2;durP2;ratioP2
80131;SDS011;69442;51.442;10.564;2024-02-26T00:00:06;1.92;;;1.60;;
80131;SDS011;69442;51.442;10.564;2024-02-26T00:02:35;1.35;;;1.23;;
80131;SDS011;69442;51.442;10.564;2024-02-26T00:05:04;2.03;;;1.20;;
80131;SDS011;69442;51.442;10.564;2024-02-26T00:07:30;5.88;;;1.90;;
80131;SDS011;69442;51.442;10.564;2024-02-26T00:09:55;3.30;;;1.60;;
80131;SDS011;69442;51.442;10.564;2024-02-26T00:12:21;2.75;;;0.68;;
80131;SDS011;69442;51.442;10.564;2024-02-26T00:14:46;1.92;;;1.20;;
80131;SDS011;69442;51.442;10.564;2024-02-26T00:17:14;1.13;;;0.80;;
80131;SDS011;69442;51.442;10.564;2024-02-26T00:19:40;2.17;;;0.82;;
80131;SDS011;69442;51.442;10.564;2024-02-26T00:22:06;2.42;;;0.98;;
80131;SDS011;69442;51.442;10.564;2024-02-26T00:24:31;2.42;;;1.23;;
80131;SDS011;69442;51.442;10.564;2024-02-26T00:26:57;3.17;;;1.48;;
80131;SDS011;69442;51.442;10.564;2024-02-26T00:29:22;5.15;;;1.90;;
80131;SDS011;69442;51.442;10.564;2024-02-26T00:31:48;2.95;;;1.50;;
80131;SDS011;69442;51.442;10.564;2024-02-26T00:34:14;1.52;;;1.30;;
80131;SDS011;69442;51.442;10.564;2024-02-26T00:36:39;1.70;;;1.40;;
80131;SDS011;69442;51.442;10.564;2024-02-26T00:39:05;1.95;;;1.35;;
80131;SDS011;69442;51.442;10.564;2024-02-26T00:41:30;4.22;;;1.27;;
80131;SDS011;69442;51.442;10.564;2024-02-26T00:43:55;2.38;;;1.13;;
80131;SDS011;69442;51.442;10.564;2024-02-26T00:46:21;1.20;;;0.80;;
80131;SDS011;69442;51.442;10.564;2024-02-26T00:48:46;1.65;;;1.35;;
80131;SDS011;69442;51.442;10.564;2024-02-26T00:51:11;0.77;;;0.70;;
80131;SDS011;69442;51.442;10.564;2024-02-26T00:53:37;2.28;;;1.30;;
80131;SDS011;69442;51.442;10.564;2024-02-26T00:56:02;2.35;;;1.70;;
80131;SDS011;69442;51.442;10.564;2024-02-26T00:58:28;3.00;;;1.58;;
80131;SDS011;69442;51.442;10.564;2024-02-26T01:00:53;2.15;;;1.77;;
80131;SDS011;69442;51.442;10.564;2024-02-26T01:03:19;1.35;;;1.15;;
80131;SDS011;69442;51.442;10.564;2024-02-26T01:05:44;12.90;;;2.55;;
80131;SDS011;69442;51.442;10.564;2024-02-26T01:08:10;8.02;;;2.25;;
80131;SDS011;69442;51.442;10.564;2024-02-26T01:10:35;4.80;;;1.30;;
80131;SDS011;69442;51.442;10.564;2024-02-26T01:13:01;3.05;;;1.40;;
80131;SDS011;69442;51.442;10.564;2024-02-26T01:15:26;7.90;;;1.38;;
80131;SDS011;69442;51.442;10.564;2024-02-26T01:17:52;9.00;;;1.70;;
80131;SDS011;69442;51.442;10.564;2024-02-26T01:20:17;6.35;;;1.50;;
80131;SDS011;69442;51.442;10.564;2024-02-26T01:22:43;1.58;;;0.63;;
80131;SDS011;69442;51.442;10.564;2024-02-26T01:25:09;3.90;;;1.08;;
80131;SDS011;69442;51.442;10.564;2024-02-26T01:27:35;11.95;;;0.90;;
80131;SDS011;69442;51.442;10.564;2024-02-26T01:30:03;5.93;;;1.08;;
80131;SDS011;69442;51.442;10.564;2024-02-26T01:32:29;1.92;;;0.75;;
80131;SDS011;69442;51.442;10.564;2024-02-26T01:34:55;5.72;;;1.23;;
80131;SDS011;69442;51.442;10.564;2024-02-26T01:37:21;8.48;;;1.88;;
80131;SDS011;69442;51.442;10.564;2024-02-26T01:39:46;5.00;;;1.20;;
80131;SDS011;69442;51.442;10.564;2024-02-26T01:42:12;2.17;;;1.08;;
80131;SDS011;69442;51.442;10.564;2024-02-26T01:44:37;2.70;;;2.00;;
80131;SDS011;69442;51.442;10.564;2024-02-26T01:47:03;3.45;;;1.63;;
80131;SDS011;69442;51.442;10.564;2024-02-26T01:49:29;10.55;;;1.48;;
80131;SDS011;69442;51.442;10.564;2024-02-26T01:51:55;0.82;;;0.60;;
80131;SDS011;69442;51.442;10.564;2024-02-26T01:54:21;1.23;;;0.95;;
80131;SDS011;69442;51.442;10.564;2024-02-26T01:56:46;1.65;;;1.20;;
80131;SDS011;69442;51.442;10.564;2024-02-26T01:59:12;1.42;;;0.90;;
80131;SDS011;69442;51.442;10.564;2024-02-26T02:01:38;1.85;;;0.80;;
80131;SDS011;69442;51.442;10.564;2024-02-26T02:04:09;0.50;;;0.50;;
80131;SDS011;69442;51.442;10.564;2024-02-26T02:06:34;2.22;;;1.73;;
80131;SDS011;69442;51.442;10.564;2024-02-26T02:09:01;1.77;;;1.30;;
80131;SDS011;69442;51.442;10.564;2024-02-26T02:11:31;1.80;;;1.40;;
80131;SDS011;69442;51.442;10.564;2024-02-26T02:13:58;1.13;;;1.05;;
80131;SDS011;69442;51.442;10.564;2024-02-26T02:16:23;1.27;;;1.02;;
80131;SDS011;69442;51.442;10.564;2024-02-26T02:18:48;2.33;;;1.40;;
80131;SDS011;69442;51.442;10.564;2024-02-26T02:21:14;1.92;;;1.10;;
80131;SDS011;69442;51.442;10.564;2024-02-26T02:23:39;3.22;;;1.40;;
80131;SDS011;69442;51.442;10.564;2024-02-26T02:26:05;1.70;;;1.50;;
80131;SDS011;69442;51.442;10.564;2024-02-26T02:28:30;1.98;;;0.80;;
80131;SDS011;69442;51.442;10.564;2024-02-26T02:30:56;2.42;;;1.48;;
80131;SDS011;69442;51.442;10.564;2024-02-26T02:33:22;1.65;;;1.40;;
80131;SDS011;69442;51.442;10.564;2024-02-26T02:35:48;2.35;;;1.52;;
80131;SDS011;69442;51.442;10.564;2024-02-26T02:38:15;3.33;;;1.50;;
80131;SDS011;69442;51.442;10.564;2024-02-26T02:40:41;2.47;;;2.08;;
80131;SDS011;69442;51.442;10.564;2024-02-26T02:43:06;1.50;;;1.00;;
80131;SDS011;69442;51.442;10.564;2024-02-26T02:45:31;1.73;;;1.13;;
80131;SDS011;69442;51.442;10.564;2024-02-26T02:47:57;1.38;;;0.80;;
80131;SDS011;69442;51.442;10.564;2024-02-26T02:50:22;5.57;;;2.40;;
80131;SDS011;69442;51.442;10.564;2024-02-26T02:52:47;4.93;;;2.03;;
80131;SDS011;69442;51.442;10.564;2024-02-26T02:55:13;3.35;;;1.88;;
80131;SDS011;69442;51.442;10.564;2024-02-26T02:57:39;2.65;;;2.20;;
80131;SDS011;69442;51.442;10.564;2024-02-26T03:00:09;2.78;;;1.75;;
80131;SDS011;69442;51.442;10.564;2024-02-26T03:02:35;1.50;;;1.35;;
80131;SDS011;69442;51.442;10.564;2024-02-26T03:05:01;1.65;;;1.27;;
80131;SDS011;69442;51.442;10.564;2024-02-26T03:07:27;1.48;;;0.98;;
80131;SDS011;69442;51.442;10.564;2024-02-26T03:09:53;1.90;;;1.00;;
80131;SDS011;69442;51.442;10.564;2024-02-26T03:12:18;3.67;;;2.10;;
80131;SDS011;69442;51.442;10.564;2024-02-26T03:14:43;5.57;;;2.65;;
80131;SDS011;69442;51.442;10.564;2024-02-26T03:17:09;1.48;;;0.82;;
80131;SDS011;69442;51.442;10.564;2024-02-26T03:19:34;2.15;;;1.65;;
80131;SDS011;69442;51.442;10.564;2024-02-26T03:21:59;5.65;;;2.63;;
80131;SDS011;69442;51.442;10.564;2024-02-26T03:24:25;16.25;;;4.25;;
80131;SDS011;69442;51.442;10.564;2024-02-26T03:26:50;3.10;;;1.30;;
80131;SDS011;69442;51.442;10.564;2024-02-26T03:29:17;3.47;;;1.88;;
80131;SDS011;69442;51.442;10.564;2024-02-26T03:31:42;15.40;;;4.15;;
80131;SDS011;69442;51.442;10.564;2024-02-26T03:34:07;3.40;;;1.17;;
80131;SDS011;69442;51.442;10.564;2024-02-26T03:36:34;4.00;;;1.67;;
80131;SDS011;69442;51.442;10.564;2024-02-26T03:38:59;2.30;;;1.25;;
80131;SDS011;69442;51.442;10.564;2024-02-26T03:41:24;5.20;;;2.88;;
80131;SDS011;69442;51.442;10.564;2024-02-26T03:43:50;5.95;;;3.92;;
80131;SDS011;69442;51.442;10.564;2024-02-26T03:46:15;5.32;;;3.72;;
80131;SDS011;69442;51.442;10.564;2024-02-26T03:48:41;1.92;;;1.20;;
80131;SDS011;69442;51.442;10.564;2024-02-26T03:51:08;1.45;;;0.98;;
80131;SDS011;69442;51.442;10.564;2024-02-26T03:53:35;3.10;;;1.95;;
80131;SDS011;69442;51.442;10.564;2024-02-26T03:56:03;1.52;;;1.20;;
80131;SDS011;69442;51.442;10.564;2024-02-26T03:58:29;4.03;;;1.98;;
80131;SDS011;69442;51.442;10.564;2024-02-26T04:00:55;2.53;;;1.52;;
80131;SDS011;69442;51.442;10.564;2024-02-26T04:03:21;5.53;;;3.70;;
80131;SDS011;69442;51.442;10.564;2024-02-26T04:05:46;5.53;;;3.33;;
80131;SDS011;69442;51.442;10.564;2024-02-26T04:08:12;5.20;;;3.22;;
80131;SDS011;69442;51.442;10.564;2024-02-26T04:10:37;3.00;;;1.58;;
80131;SDS011;69442;51.442;10.564;2024-02-26T04:13:06;6.80;;;4.20;;
80131;SDS011;69442;51.442;10.564;2024-02-26T04:15:32;3.45;;;1.80;;
80131;SDS011;69442;51.442;10.564;2024-02-26T04:17:58;8.23;;;4.22;;
80131;SDS011;69442;51.442;10.564;2024-02-26T04:20:23;6.30;;;2.95;;
80131;SDS011;69442;51.442;10.564;2024-02-26T04:22:49;10.73;;;5.85;;
80131;SDS011;69442;51.442;10.564;2024-02-26T04:25:14;7.53;;;2.90;;
80131;SDS011;69442;51.442;10.564;2024-02-26T04:27:40;12.38;;;6.78;;
80131;SDS011;69442;51.442;10.564;2024-02-26T04:30:06;3.50;;;2.38;;
80131;SDS011;69442;51.442;10.564;2024-02-26T04:32:32;14.60;;;6.35;;
80131;SDS011;69442;51.442;10.564;2024-02-26T04:34:58;16.25;;;7.35;;
80131;SDS011;69442;51.442;10.564;2024-02-26T04:37:23;12.65;;;6.10;;
80131;SDS011;69442;51.442;10.564;2024-02-26T04:39:49;6.97;;;4.38;;
80131;SDS011;69442;51.442;10.564;2024-02-26T04:42:14;12.05;;;6.85;;
80131;SDS011;69442;51.442;10.564;2024-02-26T04:44:39;4.07;;;2.38;;
80131;SDS011;69442;51.442;10.564;2024-02-26T04:47:05;5.63;;;2.80;;
80131;SDS011;69442;51.442;10.564;2024-02-26T04:49:30;8.40;;;4.47;;
80131;SDS011;69442;51.442;10.564;2024-02-26T04:51:55;13.07;;;6.75;;
80131;SDS011;69442;51.442;10.564;2024-02-26T04:54:21;3.50;;;2.25;;
80131;SDS011;69442;51.442;10.564;2024-02-26T04:56:47;18.58;;;7.45;;
80131;SDS011;69442;51.442;10.564;2024-02-26T04:59:13;8.75;;;4.82;;
80131;SDS011;69442;51.442;10.564;2024-02-26T05:01:39;17.70;;;8.95;;
80131;SDS011;69442;51.442;10.564;2024-02-26T05:04:04;17.13;;;8.63;;
80131;SDS011;69442;51.442;10.564;2024-02-26T05:06:30;7.03;;;3.75;;
80131;SDS011;69442;51.442;10.564;2024-02-26T05:08:55;24.20;;;9.57;;
80131;SDS011;69442;51.442;10.564;2024-02-26T05:11:20;6.53;;;3.60;;
80131;SDS011;69442;51.442;10.564;2024-02-26T05:13:47;19.02;;;7.63;;
80131;SDS011;69442;51.442;10.564;2024-02-26T05:16:13;17.88;;;8.15;;
80131;SDS011;69442;51.442;10.564;2024-02-26T05:18:38;19.30;;;8.88;;
80131;SDS011;69442;51.442;10.564;2024-02-26T05:21:04;8.70;;;4.05;;
80131;SDS011;69442;51.442;10.564;2024-02-26T05:23:29;8.00;;;4.13;;
80131;SDS011;69442;51.442;10.564;2024-02-26T05:25:55;24.70;;;9.90;;
80131;SDS011;69442;51.442;10.564;2024-02-26T05:28:20;11.73;;;5.93;;
80131;SDS011;69442;51.442;10.564;2024-02-26T05:30:46;9.68;;;5.03;;
80131;SDS011;69442;51.442;10.564;2024-02-26T05:33:11;12.40;;;5.15;;
80131;SDS011;69442;51.442;10.564;2024-02-26T05:35:37;13.15;;;6.80;;
80131;SDS011;69442;51.442;10.564;2024-02-26T05:38:03;9.20;;;3.92;;
80131;SDS011;69442;51.442;10.564;2024-02-26T05:40:29;8.32;;;3.08;;
80131;SDS011;69442;51.442;10.564;2024-02-26T05:42:55;17.05;;;7.30;;
80131;SDS011;69442;51.442;10.564;2024-02-26T05:45:20;4.68;;;2.80;;
80131;SDS011;69442;51.442;10.564;2024-02-26T05:47:47;25.70;;;12.00;;
80131;SDS011;69442;51.442;10.564;2024-02-26T05:50:12;25.30;;;11.18;;
80131;SDS011;69442;51.442;10.564;2024-02-26T05:52:38;28.23;;;12.73;;
80131;SDS011;69442;51.442;10.564;2024-02-26T05:55:05;18.65;;;8.02;;
80131;SDS011;69442;51.442;10.564;2024-02-26T05:57:32;8.40;;;4.38;;
80131;SDS011;69442;51.442;10.564;2024-02-26T05:59:58;16.55;;;7.03;;
80131;SDS011;69442;51.442;10.564;2024-02-26T06:02:28;21.20;;;8.73;;
80131;SDS011;69442;51.442;10.564;2024-02-26T06:04:54;23.42;;;9.90;;
80131;SDS011;69442;51.442;10.564;2024-02-26T06:07:19;11.15;;;5.28;;
80131;SDS011;69442;51.442;10.564;2024-02-26T06:09:44;26.65;;;10.70;;
80131;SDS011;69442;51.442;10.564;2024-02-26T06:12:10;25.73;;;12.05;;
80131;SDS011;69442;51.442;10.564;2024-02-26T06:14:35;8.82;;;4.25;;
80131;SDS011;69442;51.442;10.564;2024-02-26T06:17:01;16.85;;;8.68;;
80131;SDS011;69442;51.442;10.564;2024-02-26T06:19:26;2.92;;;1.73;;
80131;SDS011;69442;51.442;10.564;2024-02-26T06:21:51;20.10;;;9.15;;
80131;SDS011;69442;51.442;10.564;2024-02-26T06:24:17;13.18;;;6.22;;
80131;SDS011;69442;51.442;10.564;2024-02-26T06:26:42;24.65;;;11.52;;
80131;SDS011;69442;51.442;10.564;2024-02-26T06:29:08;23.63;;;10.48;;
80131;SDS011;69442;51.442;10.564;2024-02-26T06:31:33;6.68;;;4.30;;
80131;SDS011;69442;51.442;10.564;2024-02-26T06:33:58;17.40;;;9.43;;
80131;SDS011;69442;51.442;10.564;2024-02-26T06:36:24;22.27;;;9.90;;
80131;SDS011;69442;51.442;10.564;2024-02-26T06:38:50;6.00;;;3.13;;
80131;SDS011;69442;51.442;10.564;2024-02-26T06:41:16;8.80;;;4.72;;
80131;SDS011;69442;51.442;10.564;2024-02-26T06:43:42;19.83;;;9.38;;
80131;SDS011;69442;51.442;10.564;2024-02-26T06:46:07;3.88;;;2.05;;
80131;SDS011;69442;51.442;10.564;2024-02-26T06:48:33;17.77;;;8.57;;
80131;SDS011;69442;51.442;10.564;2024-02-26T06:50:58;36.13;;;13.68;;
80131;SDS011;69442;51.442;10.564;2024-02-26T06:53:23;9.18;;;5.72;;
80131;SDS011;69442;51.442;10.564;2024-02-26T06:55:49;10.32;;;4.90;;
80131;SDS011;69442;51.442;10.564;2024-02-26T06:58:15;15.10;;;7.18;;
80131;SDS011;69442;51.442;10.564;2024-02-26T07:00:40;5.03;;;3.05;;
80131;SDS011;69442;51.442;10.564;2024-02-26T07:03:06;6.00;;;3.42;;
80131;SDS011;69442;51.442;10.564;2024-02-26T07:05:31;12.07;;;6.03;;
80131;SDS011;69442;51.442;10.564;2024-02-26T07:07:56;11.00;;;5.13;;
80131;SDS011;69442;51.442;10.564;2024-02-26T07:10:22;17.10;;;7.15;;
80131;SDS011;69442;51.442;10.564;2024-02-26T07:12:47;16.58;;;6.55;;
80131;SDS011;69442;51.442;10.564;2024-02-26T07:15:13;8.80;;;5.05;;
80131;SDS011;69442;51.442;10.564;2024-02-26T07:17:38;14.98;;;6.88;;
80131;SDS011;69442;51.442;10.564;2024-02-26T07:20:07;15.65;;;6.80;;
80131;SDS011;69442;51.442;10.564;2024-02-26T07:22:33;24.08;;;11.18;;
80131;SDS011;69442;51.442;10.564;2024-02-26T07:24:58;24.67;;;10.88;;
80131;SDS011;69442;51.442;10.564;2024-02-26T07:27:24;15.20;;;7.47;;
80131;SDS011;69442;51.442;10.564;2024-02-26T07:29:49;22.63;;;10.82;;
80131;SDS011;69442;51.442;10.564;2024-02-26T07:32:15;21.25;;;9.38;;
80131;SDS011;69442;51.442;10.564;2024-02-26T07:34:40;22.65;;;10.85;;
80131;SDS011;69442;51.442;10.564;2024-02-26T07:37:09;21.80;;;9.52;;
80131;SDS011;69442;51.442;10.564;2024-02-26T07:39:37;23.70;;;10.65;;
80131;SDS011;69442;51.442;10.564;2024-02-26T07:42:03;14.32;;;7.72;;
80131;SDS011;69442;51.442;10.564;2024-02-26T07:44:29;22.23;;;10.43;;
80131;SDS011;69442;51.442;10.564;2024-02-26T07:46:54;23.13;;;10.02;;
80131;SDS011;69442;51.442;10.564;2024-02-26T07:49:19;25.20;;;11.15;;
80131;SDS011;69442;51.442;10.564;2024-02-26T07:51:45;23.40;;;11.73;;
80131;SDS011;69442;51.442;10.564;2024-02-26T07:54:11;22.77;;;12.15;;
80131;SDS011;69442;51.442;10.564;2024-02-26T07:56:36;24.45;;;12.07;;
80131;SDS011;69442;51.442;10.564;2024-02-26T07:59:01;23.55;;;10.23;;
80131;SDS011;69442;51.442;10.564;2024-02-26T08:01:27;21.77;;;10.07;;
80131;SDS011;69442;51.442;10.564;2024-02-26T08:03:53;20.45;;;10.32;;
80131;SDS011;69442;51.442;10.564;2024-02-26T08:06:18;21.58;;;10.35;;
80131;SDS011;69442;51.442;10.564;2024-02-26T08:08:44;22.70;;;10.82;;
80131;SDS011;69442;51.442;10.564;2024-02-26T08:11:09;24.13;;;13.20;;
80131;SDS011;69442;51.442;10.564;2024-02-26T08:13:35;24.15;;;11.02;;
80131;SDS011;69442;51.442;10.564;2024-02-26T08:16:01;12.32;;;6.90;;
80131;SDS011;69442;51.442;10.564;2024-02-26T08:18:26;19.88;;;9.65;;
80131;SDS011;69442;51.442;10.564;2024-02-26T08:20:51;22.00;;;9.82;;
80131;SDS011;69442;51.442;10.564;2024-02-26T08:23:17;19.38;;;9.75;;
80131;SDS011;69442;51.442;10.564;2024-02-26T08:25:42;12.23;;;6.07;;
80131;SDS011;69442;51.442;10.564;2024-02-26T08:28:08;10.80;;;5.32;;
80131;SDS011;69442;51.442;10.564;2024-02-26T08:30:33;20.40;;;9.35;;
80131;SDS011;69442;51.442;10.564;2024-02-26T08:32:59;20.25;;;9.68;;
80131;SDS011;69442;51.442;10.564;2024-02-26T08:35:25;10.30;;;5.57;;
80131;SDS011;69442;51.442;10.564;2024-02-26T08:37:50;23.42;;;10.38;;
80131;SDS011;69442;51.442;10.564;2024-02-26T08:40:16;16.25;;;9.05;;
80131;SDS011;69442;51.442;10.564;2024-02-26T08:42:41;14.73;;;7.32;;
80131;SDS011;69442;51.442;10.564;2024-02-26T08:45:07;21.58;;;9.73;;
80131;SDS011;69442;51.442;10.564;2024-02-26T08:47:33;14.93;;;7.18;;
80131;SDS011;69442;51.442;10.564;2024-02-26T08:49:58;18.70;;;9.57;;
80131;SDS011;69442;51.442;10.564;2024-02-26T08:52:24;18.60;;;10.10;;
80131;SDS011;69442;51.442;10.564;2024-02-26T08:54:49;23.08;;;11.00;;
80131;SDS011;69442;51.442;10.564;2024-02-26T08:57:15;18.60;;;10.38;;
80131;SDS011;69442;51.442;10.564;2024-02-26T08:59:40;18.73;;;9.60;;
80131;SDS011;69442;51.442;10.564;2024-02-26T09:02:07;18.67;;;9.77;;
80131;SDS011;69442;51.442;10.564;2024-02-26T09:04:34;20.48;;;9.43;;
80131;SDS011;69442;51.442;10.564;2024-02-26T09:07:00;21.38;;;12.43;;
80131;SDS011;69442;51.442;10.564;2024-02-26T09:09:26;26.17;;;11.77;;
80131;SDS011;69442;51.442;10.564;2024-02-26T09:11:51;22.00;;;10.35;;
80131;SDS011;69442;51.442;10.564;2024-02-26T09:14:17;21.23;;;10.95;;
80131;SDS011;69442;51.442;10.564;2024-02-26T09:16:43;18.55;;;9.52;;
80131;SDS011;69442;51.442;10.564;2024-02-26T09:19:09;19.08;;;9.82;;
80131;SDS011;69442;51.442;10.564;2024-02-26T09:21:34;16.17;;;9.10;;
80131;SDS011;69442;51.442;10.564;2024-02-26T09:23:59;16.42;;;9.18;;
80131;SDS011;69442;51.442;10.564;2024-02-26T09:26:25;19.33;;;10.05;;
80131;SDS011;69442;51.442;10.564;2024-02-26T09:28:50;15.63;;;8.70;;
80131;SDS011;69442;51.442;10.564;2024-02-26T09:31:17;18.35;;;7.82;;
80131;SDS011;69442;51.442;10.564;2024-02-26T09:33:43;19.60;;;10.10;;
80131;SDS011;69442;51.442;10.564;2024-02-26T09:36:08;20.70;;;10.15;;
80131;SDS011;69442;51.442;10.564;2024-02-26T09:38:35;19.67;;;9.60;;
80131;SDS011;69442;51.442;10.564;2024-02-26T09:41:03;19.98;;;10.70;;
80131;SDS011;69442;51.442;10.564;2024-02-26T09:43:34;20.48;;;9.70;;
80131;SDS011;69442;51.442;10.564;2024-02-26T09:46:01;20.23;;;11.02;;
80131;SDS011;69442;51.442;10.564;2024-02-26T09:48:26;18.02;;;9.27;;
80131;SDS011;69442;51.442;10.564;2024-02-26T09:50:53;21.73;;;11.48;;
80131;SDS011;69442;51.442;10.564;2024-02-26T09:53:18;17.88;;;9.57;;
80131;SDS011;69442;51.442;10.564;2024-02-26T09:55:46;20.23;;;9.20;;
80131;SDS011;69442;51.442;10.564;2024-02-26T09:58:12;24.63;;;9.50;;
80131;SDS011;69442;51.442;10.564;2024-02-26T10:00:43;20.83;;;10.20;;
80131;SDS011;69442;51.442;10.564;2024-02-26T10:03:15;17.63;;;10.02;;
80131;SDS011;69442;51.442;10.564;2024-02-26T10:05:41;18.88;;;10.30;;
80131;SDS011;69442;51.442;10.564;2024-02-26T10:08:10;18.05;;;10.20;;
80131;SDS011;69442;51.442;10.564;2024-02-26T10:10:36;15.35;;;8.32;;
80131;SDS011;69442;51.442;10.564;2024-02-26T10:13:03;20.65;;;9.98;;
80131;SDS011;69442;51.442;10.564;2024-02-26T10:15:34;18.52;;;11.45;;
80131;SDS011;69442;51.442;10.564;2024-02-26T10:18:03;20.88;;;10.57;;
80131;SDS011;69442;51.442;10.564;2024-02-26T10:20:29;24.83;;;15.63;;
80131;SDS011;69442;51.442;10.564;2024-02-26T10:22:56;18.80;;;10.88;;
80131;SDS011;69442;51.442;10.564;2024-02-26T10:25:22;18.02;;;10.25;;
80131;SDS011;69442;51.442;10.564;2024-02-26T10:27:47;19.20;;;10.52;;
80131;SDS011;69442;51.442;10.564;2024-02-26T10:30:15;11.80;;;7.00;;
80131;SDS011;69442;51.442;10.564;2024-02-26T10:32:46;15.07;;;7.40;;
80131;SDS011;69442;51.442;10.564;2024-02-26T10:35:12;20.10;;;11.10;;
80131;SDS011;69442;51.442;10.564;2024-02-26T10:37:41;21.65;;;10.65;;
80131;SDS011;69442;51.442;10.564;2024-02-26T10:40:13;16.70;;;8.88;;
80131;SDS011;69442;51.442;10.564;2024-02-26T10:42:40;20.70;;;9.63;;
80131;SDS011;69442;51.442;10.564;2024-02-26T10:45:06;19.20;;;9.77;;
80131;SDS011;69442;51.442;10.564;2024-02-26T10:47:34;16.17;;;9.82;;
80131;SDS011;69442;51.442;10.564;2024-02-26T10:50:03;27.88;;;10.85;;
80131;SDS011;69442;51.442;10.564;2024-02-26T10:52:33;18.02;;;10.45;;
80131;SDS011;69442;51.442;10.564;2024-02-26T10:55:00;19.92;;;10.95;;
80131;SDS011;69442;51.442;10.564;2024-02-26T10:57:29;16.40;;;9.55;;
80131;SDS011;69442;51.442;10.564;2024-02-26T11:00:15;16.75;;;9.73;;
80131;SDS011;69442;51.442;10.564;2024-02-26T11:02:41;19.90;;;12.00;;
80131;SDS011;69442;51.442;10.564;2024-02-26T11:05:10;18.85;;;11.27;;
80131;SDS011;69442;51.442;10.564;2024-02-26T11:07:37;17.02;;;10.82;;
80131;SDS011;69442;51.442;10.564;2024-02-26T11:10:03;17.35;;;9.73;;
80131;SDS011;69442;51.442;10.564;2024-02-26T11:12:30;15.43;;;9.75;;
80131;SDS011;69442;51.442;10.564;2024-02-26T11:14:57;20.00;;;11.07;;
80131;SDS011;69442;51.442;10.564;2024-02-26T11:17:27;14.80;;;7.30;;
80131;SDS011;69442;51.442;10.564;2024-02-26T11:19:56;17.48;;;10.48;;
80131;SDS011;69442;51.442;10.564;2024-02-26T11:22:27;16.52;;;9.27;;
80131;SDS011;69442;51.442;10.564;2024-02-26T11:24:53;16.20;;;9.32;;
80131;SDS011;69442;51.442;10.564;2024-02-26T11:27:23;17.70;;;10.10;;
80131;SDS011;69442;51.442;10.564;2024-02-26T11:29:52;16.77;;;10.23;;
80131;SDS011;69442;51.442;10.564;2024-02-26T11:32:18;12.73;;;7.85;;
80131;SDS011;69442;51.442;10.564;2024-02-26T11:34:45;13.32;;;7.63;;
80131;SDS011;69442;51.442;10.564;2024-02-26T11:39:37;18.58;;;11.40;;
80131;SDS011;69442;51.442;10.564;2024-02-26T11:42:05;14.20;;;7.07;;
80131;SDS011;69442;51.442;10.564;2024-02-26T11:44:34;18.50;;;9.20;;
80131;SDS011;69442;51.442;10.564;2024-02-26T11:47:13;15.07;;;9.20;;
80131;SDS011;69442;51.442;10.564;2024-02-26T11:49:42;14.20;;;7.75;;
80131;SDS011;69442;51.442;10.564;2024-02-26T11:52:08;15.07;;;9.45;;
80131;SDS011;69442;51.442;10.564;2024-02-26T11:57:28;17.08;;;8.90;;
80131;SDS011;69442;51.442;10.564;2024-02-26T11:59:56;16.17;;;8.15;;
80131;SDS011;69442;51.442;10.564;2024-02-26T12:05:15;13.23;;;8.02;;
80131;SDS011;69442;51.442;10.564;2024-02-26T12:07:49;14.15;;;8.75;;
80131;SDS011;69442;51.442;10.564;2024-02-26T12:10:23;15.75;;;8.57;;
80131;SDS011;69442;51.442;10.564;2024-02-26T12:13:13;14.38;;;7.40;;
80131;SDS011;69442;51.442;10.564;2024-02-26T12:18:06;15.48;;;7.43;;
80131;SDS011;69442;51.442;10.564;2024-02-26T12:20:35;11.10;;;7.45;;
80131;SDS011;69442;51.442;10.564;2024-02-26T12:23:01;14.73;;;6.90;;
80131;SDS011;69442;51.442;10.564;2024-02-26T12:25:29;15.77;;;8.15;;
80131;SDS011;69442;51.442;10.564;2024-02-26T12:27:56;14.50;;;7.90;;
80131;SDS011;69442;51.442;10.564;2024-02-26T12:30:22;12.18;;;7.70;;
80131;SDS011;69442;51.442;10.564;2024-02-26T12:32:48;10.95;;;7.90;;
80131;SDS011;69442;51.442;10.564;2024-02-26T12:35:15;11.05;;;7.70;;
80131;SDS011;69442;51.442;10.564;2024-02-26T12:37:42;10.15;;;6.97;;
80131;SDS011;69442;51.442;10.564;2024-02-26T12:40:09;10.82;;;7.07;;
80131;SDS011;69442;51.442;10.564;2024-02-26T12:42:35;10.30;;;7.28;;
80131;SDS011;69442;51.442;10.564;2024-02-26T12:45:04;13.48;;;7.93;;
80131;SDS011;69442;51.442;10.564;2024-02-26T12:50:02;11.80;;;7.28;;
80131;SDS011;69442;51.442;10.564;2024-02-26T12:52:29;12.38;;;8.02;;
80131;SDS011;69442;51.442;10.564;2024-02-26T12:54:56;10.30;;;6.80;;
80131;SDS011;69442;51.442;10.564;2024-02-26T12:57:21;13.38;;;7.53;;
80131;SDS011;69442;51.442;10.564;2024-02-26T12:59:47;11.75;;;6.85;;
80131;SDS011;69442;51.442;10.564;2024-02-26T13:02:13;14.68;;;8.57;;
80131;SDS011;69442;51.442;10.564;2024-02-26T13:04:38;11.57;;;7.13;;
80131;SDS011;69442;51.442;10.564;2024-02-26T13:07:04;11.18;;;7.63;;
80131;SDS011;69442;51.442;10.564;2024-02-26T13:09:33;12.05;;;8.40;;
80131;SDS011;69442;51.442;10.564;2024-02-26T13:12:00;14.45;;;8.25;;
80131;SDS011;69442;51.442;10.564;2024-02-26T13:14:29;14.00;;;7.40;;
80131;SDS011;69442;51.442;10.564;2024-02-26T13:16:59;15.15;;;7.72;;
80131;SDS011;69442;51.442;10.564;2024-02-26T13:19:26;11.35;;;6.68;;
80131;SDS011;69442;51.442;10.564;2024-02-26T13:21:53;15.13;;;9.02;;
80131;SDS011;69442;51.442;10.564;2024-02-26T13:24:19;12.32;;;7.60;;
80131;SDS011;69442;51.442;10.564;2024-02-26T13:26:45;14.35;;;7.88;;
80131;SDS011;69442;51.442;10.564;2024-02-26T13:29:20;12.18;;;7.53;;
80131;SDS011;69442;51.442;10.564;2024-02-26T13:31:45;12.43;;;7.10;;
80131;SDS011;69442;51.442;10.564;2024-02-26T13:34:26;11.27;;;7.10;;
80131;SDS011;69442;51.442;10.564;2024-02-26T13:36:55;10.90;;;6.20;;
80131;SDS011;69442;51.442;10.564;2024-02-26T13:39:24;13.43;;;7.05;;
80131;SDS011;69442;51.442;10.564;2024-02-26T13:41:51;9.25;;;6.35;;
80131;SDS011;69442;51.442;10.564;2024-02-26T13:44:17;11.15;;;7.38;;
80131;SDS011;69442;51.442;10.564;2024-02-26T13:46:42;11.52;;;8.35;;
80131;SDS011;69442;51.442;10.564;2024-02-26T13:49:08;13.00;;;8.57;;
80131;SDS011;69442;51.442;10.564;2024-02-26T13:51:34;12.52;;;8.00;;
80131;SDS011;69442;51.442;10.564;2024-02-26T13:54:00;10.50;;;6.47;;
80131;SDS011;69442;51.442;10.564;2024-02-26T13:56:26;12.25;;;7.57;;
80131;SDS011;69442;51.442;10.564;2024-02-26T13:58:52;11.63;;;6.57;;
80131;SDS011;69442;51.442;10.564;2024-02-26T14:01:17;9.95;;;6.00;;
80131;SDS011;69442;51.442;10.564;2024-02-26T14:03:43;10.77;;;5.63;;
80131;SDS011;69442;51.442;10.564;2024-02-26T14:06:08;10.57;;;6.05;;
80131;SDS011;69442;51.442;10.564;2024-02-26T14:08:34;9.88;;;6.30;;
80131;SDS011;69442;51.442;10.564;2024-02-26T14:10:59;11.15;;;7.05;;
80131;SDS011;69442;51.442;10.564;2024-02-26T14:13:25;9.82;;;5.88;;
80131;SDS011;69442;51.442;10.564;2024-02-26T14:15:50;12.20;;;6.25;;
80131;SDS011;69442;51.442;10.564;2024-02-26T14:18:16;10.40;;;6.43;;
80131;SDS011;69442;51.442;10.564;2024-02-26T14:20:41;8.57;;;5.80;;
80131;SDS011;69442;51.442;10.564;2024-02-26T14:23:07;11.05;;;6.32;;
80131;SDS011;69442;51.442;10.564;2024-02-26T14:25:33;11.35;;;6.75;;
80131;SDS011;69442;51.442;10.564;2024-02-26T14:27:59;10.27;;;5.43;;
80131;SDS011;69442;51.442;10.564;2024-02-26T14:30:25;9.52;;;6.95;;